Time;durP1;ratioP1;P1;durP2;ratioP2;P2;SDS_P1;SDS_P2;PMS_P1;PMS_P2;Temp;Humidity;BMP_temperature;BMP_pressure;BME280_temperature;BME280_humidity;BME280_pressure;Samples;Min_cycle;Max_cycle;Signal;HPM_P1;HPM_P2
2022/09/26 00:01:46;;;;;;;3.20;2.60;;;10.00;99.90;;;;;;5065133;23;20213;-72
2022/09/26 00:03:53;;;;;;;4.40;2.47;;;10.00;99.90;;;;;;5040276;23;20591;-72
2022/09/26 00:06:03;;;;;;;2.50;2.23;;;10.10;99.90;;;;;;5066080;23;20604;-71
2022/09/26 00:08:05;;;;;;;2.97;2.30;;;10.10;99.90;;;;;;5065942;23;20151;-72
2022/09/26 00:10:06;;;;;;;2.57;2.20;;;10.10;99.90;;;;;;5039861;23;20166;-71
2022/09/26 00:12:07;;;;;;;2.90;2.43;;;10.10;99.90;;;;;;5065112;23;20243;-72
2022/09/26 00:14:13;;;;;;;3.00;2.00;;;10.10;99.90;;;;;;5066011;23;20616;-72
2022/09/26 00:16:14;;;;;;;2.73;2.13;;;10.10;99.90;;;;;;5066057;23;20237;-71
2022/09/26 00:18:15;;;;;;;2.90;2.00;;;10.10;99.90;;;;;;5065697;23;20190;-71
2022/09/26 00:20:16;;;;;;;3.13;2.20;;;10.00;99.90;;;;;;5065715;23;20244;-71
2022/09/26 00:22:16;;;;;;;2.10;1.70;;;10.00;99.90;;;;;;5067771;23;20183;-73
2022/09/26 00:24:17;;;;;;;4.30;2.07;;;10.10;99.90;;;;;;5067420;23;20220;-73
2022/09/26 00:26:19;;;;;;;1.97;1.77;;;10.00;99.90;;;;;;5067714;23;20161;-72
2022/09/26 00:28:20;;;;;;;2.93;2.00;;;9.90;99.90;;;;;;5068087;23;20165;-72
2022/09/26 00:30:20;;;;;;;2.77;1.87;;;9.80;99.90;;;;;;5067030;23;20256;-73
2022/09/26 00:32:21;;;;;;;2.90;2.00;;;9.70;99.90;;;;;;5067171;23;20189;-71
2022/09/26 00:34:22;;;;;;;2.13;1.67;;;9.80;99.90;;;;;;5067254;23;20188;-72
2022/09/26 00:36:22;;;;;;;3.20;1.97;;;9.80;99.90;;;;;;5067519;23;20650;-71
2022/09/26 00:38:23;;;;;;;2.20;1.73;;;9.70;99.90;;;;;;5067396;23;20192;-72
2022/09/26 00:40:26;;;;;;;2.17;1.80;;;9.70;99.90;;;;;;5066796;23;20165;-72
2022/09/26 00:42:27;;;;;;;2.53;2.27;;;9.60;99.90;;;;;;5067790;23;20690;-72
2022/09/26 00:44:57;;;;;;;2.60;2.30;;;9.50;99.90;;;;;;5067643;23;20166;-72
2022/09/26 00:46:58;;;;;;;2.70;2.20;;;9.40;99.90;;;;;;5067024;23;20481;-71
2022/09/26 00:49:13;;;;;;;2.27;2.03;;;9.30;99.90;;;;;;5067787;23;20167;-72
2022/09/26 00:51:14;;;;;;;3.83;2.33;;;9.30;99.90;;;;;;5066723;23;20647;-71
2022/09/26 00:53:18;;;;;;;4.13;2.80;;;9.20;99.90;;;;;;5067612;23;20192;-71
2022/09/26 00:55:22;;;;;;;2.77;2.30;;;9.20;99.90;;;;;;5067450;23;20621;-71
2022/09/26 00:57:48;;;;;;;3.63;2.70;;;9.20;99.90;;;;;;5067803;23;20169;-71
2022/09/26 00:59:53;;;;;;;3.47;2.70;;;9.10;99.90;;;;;;5067286;23;20690;-72
2022/09/26 01:01:57;;;;;;;4.23;3.17;;;8.90;99.90;;;;;;5066382;23;20241;-71
2022/09/26 01:03:58;;;;;;;2.67;2.27;;;8.90;99.90;;;;;;5067419;23;20157;-71
2022/09/26 01:06:00;;;;;;;2.77;1.93;;;8.90;99.90;;;;;;5067228;23;20241;-72
2022/09/26 01:08:01;;;;;;;2.37;2.00;;;8.90;99.90;;;;;;5067660;23;20622;-71
2022/09/26 01:10:04;;;;;;;4.20;2.40;;;8.80;99.90;;;;;;5067245;23;20485;-72
2022/09/26 01:12:07;;;;;;;2.53;1.80;;;8.80;99.90;;;;;;5066200;23;20185;-72
2022/09/26 01:14:10;;;;;;;3.00;1.77;;;8.80;99.90;;;;;;5067391;23;20557;-73
2022/09/26 01:16:10;;;;;;;3.33;2.27;;;8.70;99.90;;;;;;5067505;23;20562;-72
2022/09/26 01:18:11;;;;;;;3.43;1.90;;;8.60;99.90;;;;;;5041229;23;20216;-72
2022/09/26 01:20:45;;;;;;;2.37;1.87;;;8.60;99.90;;;;;;5066670;23;20234;-72
2022/09/26 01:23:24;;;;;;;3.63;2.00;;;8.70;99.90;;;;;;5067066;23;20185;-72
2022/09/26 01:25:43;;;;;;;2.97;2.67;;;8.70;99.90;;;;;;5067652;23;20367;-72
2022/09/26 01:27:57;;;;;;;3.23;2.33;;;8.70;99.90;;;;;;5067110;23;20236;-73
2022/09/26 01:30:10;;;;;;;4.20;2.57;;;8.80;99.90;;;;;;5067028;23;20149;-72
2022/09/26 01:34:55;;;;;;;2.70;1.83;;;8.90;99.90;;;;;;5067302;23;20163;-72
2022/09/26 01:37:31;;;;;;;2.37;1.90;;;8.90;99.90;;;;;;5067135;23;20138;-72
2022/09/26 01:39:54;;;;;;;2.23;1.90;;;8.90;99.90;;;;;;5066847;23;20203;-72
2022/09/26 01:42:13;;;;;;;2.13;1.60;;;9.00;99.90;;;;;;5066150;23;20184;-72
2022/09/26 01:44:40;;;;;;;2.37;2.10;;;9.00;99.90;;;;;;5067041;23;20200;-72
2022/09/26 01:46:51;;;;;;;2.17;1.73;;;9.10;99.90;;;;;;5066996;23;20486;-72
2022/09/26 01:48:57;;;;;;;2.07;1.87;;;9.10;99.90;;;;;;5041037;23;20266;-72
2022/09/26 01:51:11;;;;;;;2.73;2.00;;;9.30;99.90;;;;;;5066188;23;20792;-72
2022/09/26 01:53:18;;;;;;;2.10;1.90;;;9.30;99.90;;;;;;5066982;23;20191;-72
2022/09/26 01:55:30;;;;;;;2.73;2.20;;;9.30;99.90;;;;;;5066920;23;20150;-72
2022/09/26 01:57:47;;;;;;;2.93;2.20;;;9.30;99.90;;;;;;5067089;23;20157;-72
2022/09/26 01:59:57;;;;;;;2.47;1.90;;;9.20;99.90;;;;;;5067014;23;20192;-72
2022/09/26 02:02:03;;;;;;;2.57;1.80;;;9.20;99.90;;;;;;5066166;23;20186;-72
2022/09/26 02:04:27;;;;;;;2.40;1.83;;;9.30;99.90;;;;;;5066729;23;20151;-72
2022/09/26 02:06:39;;;;;;;2.83;1.60;;;9.40;99.90;;;;;;5067052;23;20236;-72
2022/09/26 02:08:52;;;;;;;1.97;1.70;;;9.40;99.90;;;;;;5066863;23;20157;-72
2022/09/26 02:11:14;;;;;;;2.10;1.77;;;9.40;99.90;;;;;;5066002;23;20185;-73
2022/09/26 02:13:31;;;;;;;3.03;2.03;;;9.50;99.90;;;;;;5041011;23;20255;-72
2022/09/26 02:15:35;;;;;;;2.30;1.70;;;9.50;99.90;;;;;;5066917;23;20173;-72
2022/09/26 02:17:42;;;;;;;2.27;2.07;;;9.50;99.90;;;;;;5067116;23;20174;-72
2022/09/26 02:19:56;;;;;;;2.27;1.80;;;9.50;99.90;;;;;;5066673;23;20261;-71
2022/09/26 02:21:59;;;;;;;3.13;1.67;;;9.60;99.90;;;;;;5065983;23;20198;-71
2022/09/26 02:24:01;;;;;;;2.13;1.70;;;9.50;99.90;;;;;;5062402;23;20162;-71
2022/09/26 02:26:02;;;;;;;1.33;1.20;;;9.50;99.90;;;;;;5066335;23;20484;-71
2022/09/26 02:28:03;;;;;;;2.13;1.30;;;9.60;99.90;;;;;;5066629;23;20173;-71
2022/09/26 02:30:05;;;;;;;2.03;1.10;;;9.70;99.90;;;;;;5066755;23;20220;-73
2022/09/26 02:32:14;;;;;;;1.33;1.20;;;9.70;99.90;;;;;;5065577;23;20515;-73
2022/09/26 02:34:15;;;;;;;1.00;0.87;;;9.70;99.90;;;;;;5066565;23;20225;-73
2022/09/26 02:36:18;;;;;;;3.20;1.17;;;9.80;99.90;;;;;;5066866;23;20190;-74
2022/09/26 02:38:20;;;;;;;1.57;1.20;;;9.80;99.90;;;;;;5066644;23;20193;-72
2022/09/26 02:40:46;;;;;;;1.30;1.20;;;9.80;99.90;;;;;;5065123;23;20240;-73
2022/09/26 02:42:56;;;;;;;2.70;1.33;;;9.80;99.90;;;;;;5065977;23;20655;-73
2022/09/26 02:45:19;;;;;;;1.70;1.30;;;9.80;99.90;;;;;;5066832;23;20554;-73
2022/09/26 02:47:39;;;;;;;1.67;1.30;;;9.80;99.90;;;;;;5040877;23;20159;-72
2022/09/26 02:50:17;;;;;;;1.67;1.30;;;9.90;99.90;;;;;;5066460;23;20592;-72
2022/09/26 02:52:47;;;;;;;2.10;1.20;;;9.80;99.90;;;;;;5066821;23;20254;-72
2022/09/26 02:55:17;;;;;;;2.03;1.63;;;9.80;99.90;;;;;;5040965;23;20232;-72
2022/09/26 02:57:39;;;;;;;3.43;1.30;;;9.80;99.90;;;;;;5066796;23;20150;-72
2022/09/26 03:00:02;;;;;;;1.93;1.50;;;9.90;99.90;;;;;;5066427;23;20201;-72
2022/09/26 03:02:18;;;;;;;1.40;1.30;;;9.80;99.90;;;;;;5065434;23;20182;-72
2022/09/26 03:04:30;;;;;;;1.83;1.60;;;9.80;99.90;;;;;;5066167;23;20632;-72
2022/09/26 03:06:38;;;;;;;2.50;1.67;;;9.80;99.90;;;;;;5066226;23;20146;-73
2022/09/26 03:08:44;;;;;;;2.20;1.80;;;9.80;99.90;;;;;;5066221;23;20149;-72
2022/09/26 03:10:46;;;;;;;2.10;1.90;;;9.80;99.90;;;;;;5065435;23;20154;-73
2022/09/26 03:12:49;;;;;;;3.27;2.03;;;9.70;99.90;;;;;;5040107;23;20194;-73
2022/09/26 03:14:51;;;;;;;2.70;2.03;;;9.80;99.90;;;;;;5065807;23;20173;-72
2022/09/26 03:16:52;;;;;;;2.10;1.90;;;9.70;99.90;;;;;;5066075;23;20603;-72
2022/09/26 03:19:25;;;;;;;3.40;2.00;;;9.70;99.90;;;;;;5066176;23;20192;-72
2022/09/26 03:21:26;;;;;;;2.00;1.80;;;9.80;99.90;;;;;;5039394;23;20169;-72
2022/09/26 03:23:28;;;;;;;1.70;1.60;;;9.70;99.90;;;;;;5066193;23;20186;-72
2022/09/26 03:25:29;;;;;;;2.33;1.93;;;9.70;99.90;;;;;;5066068;23;20163;-72
2022/09/26 03:27:30;;;;;;;2.30;2.10;;;9.70;99.90;;;;;;5016480;23;20557;-72
2022/09/26 03:29:31;;;;;;;2.63;2.10;;;9.70;99.90;;;;;;5065977;23;20214;-72
2022/09/26 03:31:32;;;;;;;2.87;2.30;;;9.80;99.90;;;;;;5038932;23;20476;-73
2022/09/26 03:33:34;;;;;;;2.37;2.13;;;9.80;99.90;;;;;;5066047;23;20174;-73
2022/09/26 03:35:35;;;;;;;2.63;2.20;;;9.70;99.90;;;;;;5066262;23;20492;-72
2022/09/26 03:37:36;;;;;;;3.13;2.50;;;9.60;99.90;;;;;;5066223;23;20165;-72
2022/09/26 03:39:36;;;;;;;3.07;2.30;;;9.60;99.90;;;;;;5066255;23;20659;-72
2022/09/26 03:41:37;;;;;;;5.23;2.70;;;9.70;99.90;;;;;;5065400;23;20160;-72
2022/09/26 03:43:40;;;;;;;2.87;2.40;;;9.50;99.90;;;;;;5066191;23;20162;-73
2022/09/26 03:45:41;;;;;;;2.87;2.50;;;9.50;99.90;;;;;;5066379;23;20189;-72
2022/09/26 03:47:42;;;;;;;2.40;2.17;;;9.70;99.90;;;;;;5065898;23;20193;-71
2022/09/26 03:49:43;;;;;;;3.80;2.70;;;9.80;99.90;;;;;;5065740;23;20495;-71
2022/09/26 03:51:44;;;;;;;3.77;2.63;;;9.70;99.90;;;;;;5064912;23;20166;-72
2022/09/26 03:53:48;;;;;;;3.43;2.70;;;9.60;99.90;;;;;;5065496;23;20162;-71
2022/09/26 03:55:48;;;;;;;3.63;2.77;;;9.50;99.90;;;;;;5066635;23;20161;-71
2022/09/26 03:57:49;;;;;;;2.47;2.20;;;9.40;99.90;;;;;;5067270;23;20184;-71
2022/09/26 03:59:49;;;;;;;4.43;4.03;;;9.40;99.90;;;;;;5067305;23;20635;-72
2022/09/26 04:01:50;;;;;;;3.13;2.17;;;9.30;99.90;;;;;;5066543;23;20204;-72
2022/09/26 04:03:51;;;;;;;2.67;1.90;;;9.40;99.90;;;;;;5067143;23;20168;-71
2022/09/26 04:05:51;;;;;;;3.20;2.20;;;9.40;99.90;;;;;;5067106;23;20503;-71
2022/09/26 04:07:52;;;;;;;3.33;1.87;;;9.40;99.90;;;;;;5041264;23;20201;-72
2022/09/26 04:09:52;;;;;;;3.90;2.43;;;9.30;99.90;;;;;;5066945;23;20199;-72
2022/09/26 04:11:53;;;;;;;1.90;1.53;;;9.30;99.90;;;;;;5066761;23;20503;-71
2022/09/26 04:13:53;;;;;;;2.40;1.40;;;9.20;99.90;;;;;;5041213;23;20214;-71
2022/09/26 04:15:58;;;;;;;2.43;1.20;;;9.10;99.90;;;;;;5066950;23;20165;-71
2022/09/26 04:17:58;;;;;;;2.90;1.60;;;9.00;99.90;;;;;;5067359;23;20173;-71
2022/09/26 04:19:59;;;;;;;3.30;1.73;;;9.00;99.90;;;;;;5067012;23;20190;-71
2022/09/26 04:22:00;;;;;;;1.43;1.33;;;9.00;99.90;;;;;;5066737;23;20863;-71
2022/09/26 04:24:01;;;;;;;1.70;1.30;;;9.00;99.90;;;;;;5041483;23;20168;-71
2022/09/26 04:26:05;;;;;;;1.70;1.60;;;8.90;99.90;;;;;;5067079;23;20170;-71
2022/09/26 04:28:07;;;;;;;5.07;3.87;;;8.80;99.90;;;;;;5067141;23;20346;-71
2022/09/26 04:30:08;;;;;;;3.43;2.40;;;8.80;99.90;;;;;;5066986;23;20634;-71
2022/09/26 04:32:09;;;;;;;2.53;2.00;;;8.80;99.90;;;;;;5066474;23;20185;-71
2022/09/26 04:34:10;;;;;;;2.20;1.90;;;8.70;99.90;;;;;;5067175;23;20170;-71
2022/09/26 04:36:13;;;;;;;4.13;3.10;;;8.60;99.90;;;;;;5067131;23;20162;-71
2022/09/26 04:38:14;;;;;;;4.70;3.60;;;8.60;99.90;;;;;;5067090;23;20160;-71
2022/09/26 04:40:14;;;;;;;3.37;2.27;;;8.60;99.90;;;;;;5065805;23;20158;-72
2022/09/26 04:42:15;;;;;;;2.20;2.00;;;8.60;99.90;;;;;;5066822;23;20662;-72
2022/09/26 04:44:16;;;;;;;2.73;2.10;;;8.60;99.90;;;;;;5067359;23;20168;-71
2022/09/26 04:46:22;;;;;;;5.47;2.53;;;8.60;99.90;;;;;;5066874;23;20165;-71
2022/09/26 04:48:23;;;;;;;4.93;2.63;;;8.60;99.90;;;;;;5067050;23;20603;-72
2022/09/26 04:50:23;;;;;;;2.63;2.30;;;8.50;99.90;;;;;;5066380;23;20193;-71
2022/09/26 04:52:25;;;;;;;5.00;2.83;;;8.40;99.90;;;;;;5066873;23;20201;-71
2022/09/26 04:54:25;;;;;;;3.57;2.50;;;8.40;99.90;;;;;;5041134;23;20249;-71
2022/09/26 04:56:28;;;;;;;3.47;2.63;;;8.50;99.90;;;;;;5066805;23;20171;-71
2022/09/26 04:58:29;;;;;;;4.63;2.77;;;8.50;99.90;;;;;;5066726;23;20212;-71
2022/09/26 05:00:30;;;;;;;3.80;2.50;;;8.50;99.90;;;;;;5066332;23;20166;-71
2022/09/26 05:02:30;;;;;;;4.13;2.60;;;8.50;99.90;;;;;;5067164;23;20643;-71
2022/09/26 05:04:32;;;;;;;3.90;3.00;;;8.40;99.90;;;;;;5067422;23;20158;-71
2022/09/26 05:06:32;;;;;;;4.87;2.90;;;8.40;99.90;;;;;;5068077;23;20224;-71
2022/09/26 05:08:40;;;;;;;3.47;3.00;;;8.40;99.90;;;;;;5067295;23;20170;-71
2022/09/26 05:10:41;;;;;;;4.27;3.47;;;8.40;99.90;;;;;;5066815;23;20159;-71
2022/09/26 05:12:42;;;;;;;3.27;2.97;;;8.30;99.90;;;;;;5041511;23;20675;-71
2022/09/26 05:14:43;;;;;;;5.03;2.87;;;8.30;99.90;;;;;;5067291;23;20159;-71
2022/09/26 05:16:44;;;;;;;6.67;3.70;;;8.00;99.90;;;;;;5067495;23;20194;-71
2022/09/26 05:18:48;;;;;;;4.00;3.37;;;8.00;99.90;;;;;;5067301;23;20946;-71
2022/09/26 05:20:49;;;;;;;4.13;2.80;;;8.00;99.90;;;;;;5067142;23;20195;-72
2022/09/26 05:22:50;;;;;;;3.97;3.10;;;8.00;99.90;;;;;;5067479;23;20499;-72
2022/09/26 05:27:10;;;;;;;6.93;3.80;;;7.80;99.90;;;;;;5067414;23;20239;-72
2022/09/26 05:29:11;;;;;;;4.00;3.23;;;7.80;99.90;;;;;;5041420;23;20412;-72
2022/09/26 05:31:11;;;;;;;7.47;4.53;;;7.80;99.90;;;;;;5066252;23;20200;-72
2022/09/26 05:33:12;;;;;;;4.60;3.63;;;7.80;99.90;;;;;;5067159;23;20517;-72
2022/09/26 05:35:13;;;;;;;4.10;3.07;;;7.90;99.90;;;;;;5066863;23;20158;-72
2022/09/26 05:37:13;;;;;;;7.40;3.67;;;7.80;99.90;;;;;;5067136;23;20609;-72
2022/09/26 05:41:33;;;;;;;5.67;3.33;;;7.80;99.90;;;;;;5066156;23;20214;-72
2022/09/26 05:43:34;;;;;;;5.07;3.77;;;8.00;99.90;;;;;;5067104;23;20860;-72
2022/09/26 05:45:35;;;;;;;11.80;6.47;;;7.90;99.90;;;;;;5066952;23;20162;-72
2022/09/26 05:47:35;;;;;;;10.00;5.50;;;7.80;99.90;;;;;;5066772;23;20213;-72
2022/09/26 05:49:36;;;;;;;4.00;2.80;;;7.70;99.90;;;;;;5067020;23;20611;-73
2022/09/26 05:51:39;;;;;;;3.87;2.70;;;7.80;99.90;;;;;;5065975;23;20297;-72
2022/09/26 05:53:42;;;;;;;5.33;3.60;;;8.00;99.90;;;;;;5066687;23;20158;-72
2022/09/26 05:55:42;;;;;;;6.40;3.40;;;8.00;99.90;;;;;;5066577;23;20155;-72
2022/09/26 05:57:53;;;;;;;3.07;2.57;;;8.00;99.90;;;;;;5040658;23;20451;-72
2022/09/26 05:59:53;;;;;;;3.83;2.73;;;7.90;99.90;;;;;;5066558;23;20234;-72
2022/09/26 06:01:54;;;;;;;6.93;4.97;;;8.00;99.90;;;;;;5065683;23;20635;-72
2022/09/26 06:03:54;;;;;;;4.83;3.13;;;8.10;99.90;;;;;;5066561;23;20157;-72
2022/09/26 06:06:20;;;;;;;4.60;3.17;;;8.10;99.90;;;;;;5066614;23;20182;-72
2022/09/26 06:08:20;;;;;;;4.20;2.70;;;8.00;99.90;;;;;;5065860;23;20274;-72
2022/09/26 06:10:21;;;;;;;3.47;3.10;;;8.00;99.90;;;;;;5065822;23;20611;-72
2022/09/26 06:12:22;;;;;;;5.93;2.73;;;8.00;99.90;;;;;;5066387;23;20185;-72
2022/09/26 06:14:25;;;;;;;5.80;3.70;;;8.00;99.90;;;;;;5066771;23;20161;-72
2022/09/26 06:16:26;;;;;;;4.17;3.17;;;8.10;99.90;;;;;;5066696;23;20444;-72
2022/09/26 06:18:26;;;;;;;4.70;3.03;;;8.10;99.90;;;;;;5065846;23;20186;-72
2022/09/26 06:20:27;;;;;;;4.60;3.40;;;8.10;99.90;;;;;;5065941;23;20391;-72
2022/09/26 06:22:27;;;;;;;4.67;3.30;;;8.30;99.90;;;;;;5066453;23;20186;-72
2022/09/26 06:24:28;;;;;;;3.87;3.10;;;8.30;99.90;;;;;;5066432;23;20160;-71
2022/09/26 06:26:28;;;;;;;22.83;10.83;;;8.50;99.90;;;;;;5066498;23;20149;-71
2022/09/26 06:28:30;;;;;;;25.43;11.03;;;8.30;99.90;;;;;;5066381;23;20173;-71
2022/09/26 06:30:30;;;;;;;28.50;14.33;;;8.40;99.90;;;;;;5065590;23;20161;-72
2022/09/26 06:32:31;;;;;;;15.70;9.63;;;8.40;99.90;;;;;;5066451;23;20189;-71
2022/09/26 06:34:31;;;;;;;9.60;5.20;;;8.60;99.90;;;;;;5066336;23;20155;-71
2022/09/26 06:36:32;;;;;;;7.43;3.90;;;8.60;99.90;;;;;;5066189;23;20167;-72
2022/09/26 06:38:34;;;;;;;3.83;3.13;;;8.60;99.90;;;;;;5066029;23;20193;-71
2022/09/26 06:40:34;;;;;;;4.80;3.60;;;8.50;99.90;;;;;;5065466;23;20663;-71
2022/09/26 06:42:37;;;;;;;4.40;3.03;;;8.50;99.90;;;;;;5066128;23;20175;-72
2022/09/26 06:44:38;;;;;;;5.13;3.57;;;8.50;99.90;;;;;;5066137;23;20158;-72
2022/09/26 06:46:38;;;;;;;3.90;3.50;;;8.40;99.90;;;;;;5066363;23;20162;-73
2022/09/26 06:48:39;;;;;;;5.60;3.67;;;8.40;99.90;;;;;;5066197;23;20720;-72
2022/09/26 06:50:40;;;;;;;5.00;2.63;;;8.40;99.90;;;;;;5065383;23;20192;-72
2022/09/26 06:52:42;;;;;;;2.60;2.33;;;8.20;99.90;;;;;;5066231;23;20817;-72
2022/09/26 06:54:44;;;;;;;2.57;2.00;;;8.30;99.90;;;;;;5065960;23;20168;-72
2022/09/26 06:56:44;;;;;;;2.37;2.10;;;8.10;99.90;;;;;;5066203;23;20872;-72
2022/09/26 06:58:45;;;;;;;1.73;1.50;;;8.10;99.90;;;;;;5065955;23;20439;-72
2022/09/26 07:00:46;;;;;;;2.50;2.10;;;8.10;99.90;;;;;;5065288;23;20158;-72
2022/09/26 07:02:52;;;;;;;3.07;2.13;;;8.10;99.90;;;;;;5066251;23;20181;-72
2022/09/26 07:04:53;;;;;;;2.47;1.97;;;8.10;99.90;;;;;;5066216;23;20158;-72
2022/09/26 07:06:53;;;;;;;3.43;1.90;;;8.10;99.90;;;;;;5065881;23;20382;-71
2022/09/26 07:08:54;;;;;;;3.40;2.27;;;8.00;99.90;;;;;;5065897;23;20162;-72
2022/09/26 07:11:01;;;;;;;2.57;1.70;;;8.00;99.90;;;;;;5065203;23;20167;-72
2022/09/26 07:13:04;;;;;;;2.40;2.00;;;8.00;99.90;;;;;;5066016;23;20500;-72
2022/09/26 07:15:06;;;;;;;2.47;2.17;;;8.10;99.90;;;;;;5065812;23;20168;-72
2022/09/26 07:17:07;;;;;;;2.70;2.50;;;8.10;99.90;;;;;;5065877;23;20895;-72
2022/09/26 07:19:08;;;;;;;3.37;2.57;;;8.00;99.90;;;;;;5066011;23;20189;-72
2022/09/26 07:21:08;;;;;;;3.73;2.80;;;8.10;99.90;;;;;;5065050;23;20215;-72
2022/09/26 07:23:10;;;;;;;3.97;3.10;;;8.10;99.90;;;;;;5065829;23;20556;-72
2022/09/26 07:25:12;;;;;;;5.03;3.20;;;8.10;99.90;;;;;;5066086;23;20163;-72
2022/09/26 07:27:13;;;;;;;3.30;3.00;;;8.20;99.90;;;;;;5065779;23;20172;-72
2022/09/26 07:29:13;;;;;;;4.23;2.73;;;8.30;99.90;;;;;;5065570;23;20538;-70
2022/09/26 07:31:14;;;;;;;4.40;3.40;;;8.40;99.90;;;;;;5064859;23;20165;-72
2022/09/26 07:33:14;;;;;;;6.57;3.37;;;8.40;99.90;;;;;;5065348;23;20601;-72
2022/09/26 07:35:16;;;;;;;5.20;3.20;;;8.50;99.90;;;;;;5066433;23;20253;-71
2022/09/26 07:37:16;;;;;;;5.97;3.57;;;8.50;99.90;;;;;;5066310;23;20169;-72
2022/09/26 07:39:17;;;;;;;6.63;3.73;;;8.60;99.90;;;;;;5066010;23;20234;-72
2022/09/26 07:41:18;;;;;;;5.57;3.93;;;8.50;99.90;;;;;;5065359;23;20170;-72
2022/09/26 07:43:19;;;;;;;6.40;4.33;;;8.50;99.90;;;;;;5058574;23;20185;-73
2022/09/26 07:50:09;;;;;;;7.03;4.47;;;8.50;99.90;;;;;;5044252;23;20787;-72
2022/09/26 07:50:13;;;;;;;9.53;4.57;;;8.50;99.90;;;;;;5053554;23;20238;-70
2022/09/26 07:52:13;;;;;;;6.03;3.33;;;8.50;99.90;;;;;;5064373;23;20265;-69
2022/09/26 07:54:14;;;;;;;5.33;4.03;;;8.60;99.90;;;;;;5064469;23;20150;-70
2022/09/26 07:56:15;;;;;;;7.33;5.00;;;8.70;99.90;;;;;;5063499;23;20196;-71
2022/09/26 07:58:16;;;;;;;5.40;3.80;;;8.70;99.90;;;;;;5064192;23;20309;-67
2022/09/26 08:00:18;;;;;;;4.87;3.23;;;8.80;99.90;;;;;;5064116;23;20163;-70
2022/09/26 08:02:23;;;;;;;7.90;5.23;;;9.00;99.90;;;;;;5064941;23;20192;-67
2022/09/26 08:04:24;;;;;;;4.23;3.43;;;9.00;99.90;;;;;;5064905;23;20229;-66
2022/09/26 08:06:26;;;;;;;4.27;2.90;;;9.20;99.90;;;;;;5065231;23;20502;-67
2022/09/26 08:08:28;;;;;;;4.60;3.13;;;9.40;99.90;;;;;;5064905;23;20143;-67
2022/09/26 08:10:32;;;;;;;4.47;3.27;;;9.60;99.90;;;;;;5064408;23;20182;-69
2022/09/26 08:12:36;;;;;;;5.23;2.97;;;9.90;99.90;;;;;;5066948;23;20817;-72
2022/09/26 08:14:38;;;;;;;5.40;2.90;;;10.00;99.90;;;;;;5064844;23;20167;-69
2022/09/26 08:16:40;;;;;;;4.87;3.10;;;10.10;99.90;;;;;;5065340;23;20175;-69
2022/09/26 08:18:41;;;;;;;2.70;2.10;;;10.30;99.90;;;;;;5064580;23;20178;-70
2022/09/26 08:20:46;;;;;;;5.23;2.60;;;10.30;99.90;;;;;;5064005;23;20167;-70
2022/09/26 08:22:46;;;;;;;5.10;2.67;;;10.30;99.90;;;;;;5063164;23;20186;-69
2022/09/26 08:24:49;;;;;;;2.97;2.60;;;10.50;99.90;;;;;;5064558;23;20493;-70
2022/09/26 08:26:49;;;;;;;6.13;2.47;;;10.40;98.50;;;;;;5064956;23;20612;-71
2022/09/26 08:28:50;;;;;;;3.63;2.40;;;10.50;99.40;;;;;;5064426;23;20216;-71
2022/09/26 08:30:51;;;;;;;3.70;2.50;;;10.60;99.90;;;;;;5064265;23;20166;-68
2022/09/26 08:32:53;;;;;;;3.17;2.40;;;10.60;99.80;;;;;;5039135;23;20575;-68
2022/09/26 08:34:54;;;;;;;4.03;2.60;;;10.70;99.00;;;;;;5039495;23;20239;-68
2022/09/26 08:36:54;;;;;;;3.60;2.60;;;10.80;96.90;;;;;;5041124;23;20565;-73
2022/09/26 08:38:56;;;;;;;2.40;2.17;;;10.90;97.30;;;;;;5045084;23;20231;-70
2022/09/26 08:41:11;;;;;;;4.17;2.00;;;10.80;96.70;;;;;;5040395;23;20160;-70
2022/09/26 08:43:52;;;;;;;4.47;2.03;;;11.00;97.80;;;;;;5042093;23;20182;-71
2022/09/26 08:48:35;;;;;;;2.00;1.80;;;10.80;96.60;;;;;;5050393;23;20156;-70
2022/09/26 08:50:49;;;;;;;3.37;2.10;;;10.90;94.20;;;;;;4986013;23;20509;-69
2022/09/26 08:53:19;;;;;;;3.40;1.73;;;10.90;93.90;;;;;;5042423;23;20189;-69
2022/09/26 08:55:24;;;;;;;2.67;1.90;;;11.10;93.40;;;;;;5042538;23;20489;-68
2022/09/26 08:57:41;;;;;;;3.20;2.23;;;11.30;93.70;;;;;;5042155;23;20194;-69
2022/09/26 08:59:44;;;;;;;1.87;1.53;;;11.30;90.20;;;;;;5042470;23;20632;-69
2022/09/26 09:01:48;;;;;;;3.37;2.07;;;11.10;89.10;;;;;;5040729;23;20163;-69
2022/09/26 09:04:00;;;;;;;2.57;1.73;;;11.10;90.40;;;;;;5041445;23;20159;-70
2022/09/26 09:06:07;;;;;;;2.17;1.80;;;11.10;89.20;;;;;;5042068;23;20230;-71
2022/09/26 09:08:20;;;;;;;1.70;1.43;;;11.40;90.00;;;;;;5041835;23;20253;-71
2022/09/26 09:10:45;;;;;;;2.03;1.43;;;11.40;86.00;;;;;;5039879;23;20159;-71
2022/09/26 09:13:20;;;;;;;1.70;1.40;;;11.50;89.40;;;;;;5039899;23;20191;-69
2022/09/26 09:15:37;;;;;;;3.03;1.20;;;11.60;83.80;;;;;;4995428;23;20167;-70
2022/09/26 09:17:42;;;;;;;1.53;1.27;;;11.80;83.00;;;;;;5041488;23;20489;-71
2022/09/26 09:20:01;;;;;;;3.47;1.57;;;11.90;83.70;;;;;;5041132;23;20631;-70
2022/09/26 09:22:08;;;;;;;2.33;1.40;;;12.00;84.40;;;;;;5040779;23;20661;-70
2022/09/26 09:24:09;;;;;;;1.73;1.20;;;12.10;84.40;;;;;;5040188;23;20148;-70
2022/09/26 09:26:24;;;;;;;2.10;1.40;;;12.20;81.10;;;;;;5041484;23;20167;-70
2022/09/26 09:28:31;;;;;;;3.03;1.60;;;12.50;81.50;;;;;;5039056;23;20151;-72
2022/09/26 09:30:39;;;;;;;1.73;1.37;;;12.70;83.30;;;;;;5040861;23;20146;-70
2022/09/26 09:33:02;;;;;;;1.33;1.20;;;12.80;83.90;;;;;;5044155;23;20174;-71
2022/09/26 09:35:03;;;;;;;2.57;1.30;;;12.90;78.70;;;;;;5065719;23;20220;-72
2022/09/26 09:37:11;;;;;;;2.27;1.20;;;13.10;80.80;;;;;;5039692;23;20167;-71
2022/09/26 09:39:29;;;;;;;1.60;1.30;;;13.60;79.80;;;;;;5065439;23;20185;-71
2022/09/26 09:41:38;;;;;;;2.27;1.40;;;14.20;73.10;;;;;;5064929;23;20154;-71
2022/09/26 09:43:47;;;;;;;1.33;1.20;;;14.10;73.40;;;;;;5039697;23;20162;-72
2022/09/26 09:45:50;;;;;;;1.83;1.30;;;14.00;69.90;;;;;;5066533;23;20205;-70
2022/09/26 09:47:51;;;;;;;1.63;1.30;;;13.70;71.80;;;;;;5065646;23;20166;-70
2022/09/26 09:49:51;;;;;;;2.27;1.30;;;13.90;71.30;;;;;;5065627;23;20254;-72
2022/09/26 09:52:07;;;;;;;3.53;1.20;;;14.10;68.10;;;;;;5064994;23;20179;-72
2022/09/26 09:54:30;;;;;;;1.83;1.00;;;14.60;67.80;;;;;;5065020;23;20166;-72
2022/09/26 09:56:44;;;;;;;2.33;1.23;;;14.80;63.30;;;;;;5065799;23;20188;-72
2022/09/26 09:59:14;;;;;;;2.00;1.20;;;15.20;63.60;;;;;;5065535;23;20205;-72
2022/09/26 10:01:33;;;;;;;1.10;1.00;;;15.70;58.80;;;;;;5065012;23;20182;-73
2022/09/26 10:04:26;;;;;;;1.80;1.70;;;15.80;57.30;;;;;;5039566;23;20143;-74
2022/09/26 10:06:31;;;;;;;1.57;1.00;;;15.70;57.00;;;;;;5039750;23;20163;-73
2022/09/26 10:08:35;;;;;;;1.97;1.43;;;15.70;57.00;;;;;;5039766;23;20163;-73
2022/09/26 10:10:46;;;;;;;2.20;1.17;;;15.50;56.50;;;;;;5038950;23;20379;-74
2022/09/26 10:12:50;;;;;;;3.27;1.33;;;15.60;55.60;;;;;;5063733;23;20178;-74
2022/09/26 10:15:03;;;;;;;1.30;1.17;;;16.40;53.80;;;;;;5039842;23;20905;-72
2022/09/26 10:17:10;;;;;;;3.00;1.20;;;16.40;51.20;;;;;;5065641;23;20151;-75
2022/09/26 10:19:11;;;;;;;1.57;1.40;;;16.40;51.10;;;;;;5065160;23;20186;-73
2022/09/26 10:21:17;;;;;;;1.20;1.10;;;16.00;55.10;;;;;;5039048;23;20780;-73
2022/09/26 10:23:32;;;;;;;1.80;1.30;;;15.80;53.90;;;;;;5040278;23;20185;-74
2022/09/26 10:25:33;;;;;;;2.07;1.23;;;16.00;52.70;;;;;;5039727;23;20159;-72
2022/09/26 10:27:38;;;;;;;1.10;0.93;;;16.80;53.50;;;;;;5039558;23;20166;-71
2022/09/26 10:29:39;;;;;;;1.73;1.00;;;16.40;51.00;;;;;;5066261;23;20231;-75
2022/09/26 10:31:41;;;;;;;2.20;1.10;;;15.00;54.70;;;;;;5064546;23;20167;-72
2022/09/26 10:33:44;;;;;;;1.10;1.00;;;14.60;56.90;;;;;;5064938;23;20835;-73
2022/09/26 10:35:45;;;;;;;1.00;1.00;;;14.60;56.70;;;;;;5039298;23;20174;-73
2022/09/26 10:37:56;;;;;;;1.00;0.90;;;14.20;59.30;;;;;;5064945;23;20225;-72
2022/09/26 10:42:20;;;;;;;2.30;0.90;;;12.90;61.20;;;;;;5065754;23;20358;-73
2022/09/26 10:44:22;;;;;;;1.20;1.10;;;12.70;66.40;;;;;;5065079;23;20209;-73
2022/09/26 10:46:22;;;;;;;1.40;1.13;;;13.00;64.70;;;;;;5066041;23;20173;-73
2022/09/26 10:48:35;;;;;;;2.50;1.37;;;13.30;61.80;;;;;;5065064;23;20166;-73
2022/09/26 10:50:36;;;;;;;1.33;0.97;;;13.40;62.70;;;;;;5039001;23;20176;-73
2022/09/26 10:52:49;;;;;;;1.20;1.10;;;14.10;59.70;;;;;;5065712;23;20478;-72
2022/09/26 10:55:11;;;;;;;1.87;1.23;;;15.20;58.60;;;;;;5065541;23;20157;-73
2022/09/26 10:57:23;;;;;;;1.60;1.03;;;16.50;53.70;;;;;;5039604;23;20159;-73
2022/09/26 10:59:31;;;;;;;1.30;1.00;;;17.60;49.30;;;;;;5039306;23;20621;-73
2022/09/26 11:01:41;;;;;;;2.10;1.30;;;18.10;46.40;;;;;;5039089;23;20146;-73
2022/09/26 11:03:44;;;;;;;1.10;1.00;;;17.80;47.10;;;;;;5066518;23;20147;-73
2022/09/26 11:05:56;;;;;;;1.23;1.10;;;16.80;49.80;;;;;;5067857;23;20154;-72
2022/09/26 11:07:56;;;;;;;1.67;1.20;;;15.40;52.00;;;;;;5066936;23;20257;-73
2022/09/26 11:10:00;;;;;;;1.67;1.00;;;14.50;55.60;;;;;;5041713;23;20170;-73
2022/09/26 11:12:25;;;;;;;2.40;1.00;;;13.90;58.90;;;;;;5041087;23;20187;-74
2022/09/26 11:14:31;;;;;;;1.60;1.10;;;14.00;58.10;;;;;;5065277;23;20186;-73
2022/09/26 11:16:52;;;;;;;1.40;1.30;;;14.20;58.50;;;;;;5039773;23;20653;-75